Impacts METAR Board
IDs:

KATL - Atlanta/Hartsfield-J, GA, US

Updated at: 0300 UTC 20 Mar 2019
Potential Impact None Slight Moderate High
Time 19/15Z 19/16Z 19/17Z 19/18Z 19/19Z 19/20Z 19/21Z 19/22Z 19/23Z 20/00Z 20/01Z 20/02Z 20/03Z
Temp47 49 52 55 55 57 57 58 57 54 51 50 50
Dewpt19 19 21 22 22 24 24 24 25 26 27 27 26
Altim30.40 30.39 30.39 30.35 30.33 30.29 30.28 30.27 30.27 30.27 30.28 30.28 30.29
VIS10 10 10 10 10 10 10 10 10 10 10 10 10
CIG-- 250 250 250 250 250 250 -- -- -- -- -- --
CoverFEWBKNBKNBKNBKNBKNBKNSCTFEWFEWFEWCLRCLR
FltCatVFRVFRVFRVFRVFRVFRVFRVFRVFRVFRVFRVFRVFR
WX--------------------------
WDir1007090905020907010070808060
WSpd17 13 10 10 10 4 8 4 5 7 7 9 7
WGst-- 21 16 15 -- -- -- -- -- -- -- -- --
Raw hourly METARs
KATL 191452Z 10017KT 10SM FEW250 08/M07 A3040 RMK AO2 PK WND 09027/1420 SLP296 T00831072 51016
KATL 191552Z 07013G21KT 10SM BKN250 09/M07 A3039 RMK AO2 SLP293 T00941072
KATL 191652Z 09010G16KT 10SM BKN250 11/M06 A3039 RMK AO2 SLP292 T01111061 $
KATL 191752Z 09010G15KT 10SM BKN250 13/M06 A3035 RMK AO2 SLP280 T01281056 10128 20044 58014
KATL 191852Z 05010KT 10SM BKN250 13/M06 A3033 RMK AO2 SLP271 T01281056
KATL 191952Z 02004KT 10SM BKN250 14/M04 A3029 RMK AO2 SLP260 T01391044
KATL 192052Z 09008KT 070V130 10SM BKN250 14/M04 A3028 RMK AO2 SLP255 T01391044 56025
KATL 192152Z 07004KT 10SM SCT250 14/M04 A3027 RMK AO2 SLP252 T01441044
KATL 192252Z 10005KT 10SM FEW250 14/M04 A3027 RMK AO2 SLP251 T01391039
KATL 192352Z 07007KT 10SM FEW250 12/M03 A3027 RMK AO2 SLP253 T01221033 10144 20117 55003
KATL 200052Z 08007KT 10SM FEW250 11/M03 A3028 RMK AO2 SLP256 T01061028
KATL 200152Z 08009KT 10SM CLR 10/M03 A3028 RMK AO2 SLP257 T01001028
KATL 200252Z 06007KT 10SM CLR 10/M03 A3029 RMK AO2 SLP259 T01001033 52006



Page loaded:  03:00 UTC  |   08:00 PM Pacific  |   09:00 PM Mountain  |   10:00 PM Central  |   11:00 PM Eastern

 

ADVISORIES

FORECASTS

FORECASTS

OBSERVATIONS

USER TOOLS

ABOUT US